PWSweather.com
Personal Weather Stations
Station Observations
KCAOCEAN4
Jeffries Ranch, Oceanside, CA 92057

Jeffries RanchOceanside, CA 92057

Lat: 33.2463208, Lon: -117.25335080000002

Elevation: 207

Station Type: Davis Vantage Vue

jeffriesranchweather.com

High Low Average
Temperature 61.2°F16.2°C 50.5°F10.3°C 55.2°F12.9°C
Dew Point 53.6°F12.0°C 47.3°F8.5°C 50.4°F10.2°C
Winds 8.9 mph 14.3 kmh Calm Calm 2.0 mph S3.2 kmh S
Wind Gusts 16.1 mph25.9 kmh -- 6.0 mph9.7 kmh
Humidity 95% 62% 85%
Pressure 30.07 in1018.3 mb 29.98 in1015.2 mb -
Precipitation 0.20 in5.1 mm - -
Hour Temp Dew Point Humidity Winds Wind Gusts Pressure Precip Precip Rate Daily Precip Total
12:04 AM 54.3°F12.4°C 51.8°F11.0°C 91% 0.9 mph ESE1.4 kmh ESE 3.0 mph4.8 kmh 30.01 in1016.3 mb 0.06 in1.5 mm 0.90 in22.9 mm 0.06 in1.5 mm
12:14 AM 54.3°F12.4°C 52.0°F11.1°C 92% Calm Calm 2.0 mph3.2 kmh 30.01 in1016.3 mb 0.06 in1.5 mm 0.00 in0.0 mm 0.06 in1.5 mm
12:24 AM 54.3°F12.4°C 52.3°F11.3°C 93% Calm Calm 0.9 mph1.4 kmh 30.01 in1016.3 mb 0.05 in1.3 mm 0.00 in0.0 mm 0.06 in1.5 mm
12:34 AM 54.3°F12.4°C 52.3°F11.3°C 93% Calm Calm 2.0 mph3.2 kmh 30.01 in1016.3 mb 0.04 in1.0 mm 0.00 in0.0 mm 0.06 in1.5 mm
12:44 AM 54.3°F12.4°C 52.3°F11.3°C 93% 0.9 mph ESE1.4 kmh ESE 2.9 mph4.7 kmh 30.01 in1016.3 mb 0.02 in0.5 mm 0.00 in0.0 mm 0.06 in1.5 mm
12:54 AM 54.1°F12.3°C 52.2°F11.2°C 93% 0.9 mph ESE1.4 kmh ESE 2.0 mph3.2 kmh 30.01 in1016.3 mb 0.02 in0.5 mm 0.00 in0.0 mm 0.06 in1.5 mm
01:04 AM 54.1°F12.3°C 52.2°F11.2°C 93% Calm Calm 2.0 mph3.2 kmh 30.01 in1016.3 mb 0.01 in0.3 mm 0.00 in0.0 mm 0.01 in0.3 mm
01:14 AM 54.1°F12.3°C 52.2°F11.2°C 93% 0.9 mph SE1.4 kmh SE 4.0 mph6.4 kmh 30.01 in1016.3 mb 0.02 in0.5 mm 0.06 in1.5 mm 0.02 in0.5 mm
01:24 AM 54.1°F12.3°C 52.2°F11.2°C 93% 0.9 mph SE1.4 kmh SE 2.9 mph4.7 kmh 30.01 in1016.3 mb 0.02 in0.5 mm 0.00 in0.0 mm 0.02 in0.5 mm
01:34 AM 54.1°F12.3°C 52.5°F11.4°C 94% Calm Calm 0.9 mph1.4 kmh 30.01 in1016.3 mb 0.03 in0.8 mm 0.06 in1.5 mm 0.03 in0.8 mm
01:44 AM 54.1°F12.3°C 52.5°F11.4°C 94% Calm Calm 0.9 mph1.4 kmh 30.01 in1016.3 mb 0.03 in0.8 mm 0.00 in0.0 mm 0.03 in0.8 mm
01:54 AM 54.0°F12.2°C 52.3°F11.3°C 94% 0.9 mph SE1.4 kmh SE 5.0 mph8.0 kmh 30.01 in1016.3 mb 0.04 in1.0 mm 0.06 in1.5 mm 0.04 in1.0 mm
02:04 AM 54.0°F12.2°C 52.3°F11.3°C 94% 0.9 mph SW1.4 kmh SW 2.0 mph3.2 kmh 30.01 in1016.3 mb 0.03 in0.8 mm 0.00 in0.0 mm 0.04 in1.0 mm
02:14 AM 54.0°F12.2°C 52.3°F11.3°C 94% 0.9 mph S1.4 kmh S 4.0 mph6.4 kmh 30.01 in1016.3 mb 0.03 in0.8 mm 0.00 in0.0 mm 0.05 in1.3 mm
02:24 AM 54.0°F12.2°C 52.3°F11.3°C 94% 2.0 mph SW3.2 kmh SW 6.0 mph9.7 kmh 30.01 in1016.3 mb 0.03 in0.8 mm 0.00 in0.0 mm 0.05 in1.3 mm
02:34 AM 54.0°F12.2°C 52.3°F11.3°C 94% 2.0 mph WSW3.2 kmh WSW 7.0 mph11.3 kmh 30.01 in1016.3 mb 0.02 in0.5 mm 0.00 in0.0 mm 0.05 in1.3 mm
02:44 AM 54.0°F12.2°C 52.3°F11.3°C 94% 2.0 mph SW3.2 kmh SW 4.0 mph6.4 kmh 30.00 in1015.9 mb 0.02 in0.5 mm 0.00 in0.0 mm 0.05 in1.3 mm
02:54 AM 54.0°F12.2°C 52.3°F11.3°C 94% 0.9 mph SSE1.4 kmh SSE 4.0 mph6.4 kmh 30.00 in1015.9 mb 0.01 in0.3 mm 0.00 in0.0 mm 0.05 in1.3 mm
03:04 AM 53.8°F12.1°C 52.2°F11.2°C 94% 2.9 mph S4.7 kmh S 6.9 mph11.1 kmh 30.00 in1015.9 mb 0.01 in0.3 mm 0.00 in0.0 mm 0.05 in1.3 mm
03:14 AM 53.8°F12.1°C 52.2°F11.2°C 94% 2.9 mph SSE4.7 kmh SSE 6.9 mph11.1 kmh 30.00 in1015.9 mb 0.00 in0.0 mm 0.00 in0.0 mm 0.05 in1.3 mm
03:24 AM 53.8°F12.1°C 52.2°F11.2°C 94% 2.0 mph ESE3.2 kmh ESE 6.0 mph9.7 kmh 29.99 in1015.6 mb 0.00 in0.0 mm 0.00 in0.0 mm 0.05 in1.3 mm
03:34 AM 53.8°F12.1°C 52.2°F11.2°C 94% 0.9 mph E1.4 kmh E 4.0 mph6.4 kmh 29.99 in1015.6 mb 0.00 in0.0 mm 0.00 in0.0 mm 0.05 in1.3 mm
03:44 AM 53.8°F12.1°C 52.2°F11.2°C 94% 0.9 mph ENE1.4 kmh ENE 2.0 mph3.2 kmh 29.98 in1015.2 mb 0.00 in0.0 mm 0.00 in0.0 mm 0.05 in1.3 mm
03:54 AM 53.6°F12.0°C 52.0°F11.1°C 94% Calm Calm 2.0 mph3.2 kmh 29.98 in1015.2 mb 0.00 in0.0 mm 0.00 in0.0 mm 0.05 in1.3 mm
04:04 AM 53.6°F12.0°C 52.0°F11.1°C 94% Calm Calm 2.0 mph3.2 kmh 29.98 in1015.2 mb 0.00 in0.0 mm 0.00 in0.0 mm 0.05 in1.3 mm
04:14 AM 53.4°F11.9°C 51.8°F11.0°C 94% Calm Calm 0.9 mph1.4 kmh 29.98 in1015.2 mb 0.00 in0.0 mm 0.00 in0.0 mm 0.05 in1.3 mm
04:24 AM 53.4°F11.9°C 51.8°F11.0°C 94% Calm Calm 3.0 mph4.8 kmh 29.98 in1015.2 mb 0.00 in0.0 mm 0.00 in0.0 mm 0.05 in1.3 mm
04:34 AM 53.2°F11.8°C 51.6°F10.9°C 94% Calm Calm 0.9 mph1.4 kmh 29.99 in1015.6 mb 0.00 in0.0 mm 0.00 in0.0 mm 0.05 in1.3 mm
04:44 AM 53.2°F11.8°C 51.6°F10.9°C 94% Calm Calm 2.0 mph3.2 kmh 29.99 in1015.6 mb 0.00 in0.0 mm 0.00 in0.0 mm 0.05 in1.3 mm
04:54 AM 53.2°F11.8°C 51.8°F11.0°C 95% Calm Calm 0.9 mph1.4 kmh 29.99 in1015.6 mb 0.00 in0.0 mm 0.00 in0.0 mm 0.05 in1.3 mm
05:04 AM 53.1°F11.7°C 51.6°F10.9°C 95% Calm Calm 0.9 mph1.4 kmh 29.99 in1015.6 mb 0.00 in0.0 mm 0.00 in0.0 mm 0.05 in1.3 mm
05:14 AM 53.1°F11.7°C 51.6°F10.9°C 95% Calm Calm 0.9 mph1.4 kmh 29.99 in1015.6 mb 0.00 in0.0 mm 0.00 in0.0 mm 0.05 in1.3 mm
05:24 AM 53.1°F11.7°C 51.6°F10.9°C 95% Calm Calm 1.0 mph1.6 kmh 30.00 in1015.9 mb 0.00 in0.0 mm 0.00 in0.0 mm 0.05 in1.3 mm
05:34 AM 53.1°F11.7°C 51.6°F10.9°C 95% Calm Calm 0.9 mph1.4 kmh 30.00 in1015.9 mb 0.00 in0.0 mm 0.00 in0.0 mm 0.05 in1.3 mm
05:44 AM 53.1°F11.7°C 51.6°F10.9°C 95% Calm Calm 1.0 mph1.6 kmh 30.00 in1015.9 mb 0.00 in0.0 mm 0.00 in0.0 mm 0.05 in1.3 mm
05:54 AM 53.1°F11.7°C 51.6°F10.9°C 95% Calm Calm -- 30.00 in1015.9 mb 0.00 in0.0 mm 0.00 in0.0 mm 0.05 in1.3 mm
06:04 AM 53.1°F11.7°C 51.6°F10.9°C 95% Calm Calm -- 30.00 in1015.9 mb 0.00 in0.0 mm 0.00 in0.0 mm 0.05 in1.3 mm
06:14 AM 53.1°F11.7°C 51.6°F10.9°C 95% Calm Calm -- 30.00 in1015.9 mb 0.00 in0.0 mm 0.00 in0.0 mm 0.05 in1.3 mm
06:24 AM 52.9°F11.6°C 51.4°F10.8°C 95% Calm Calm 1.0 mph1.6 kmh 30.00 in1015.9 mb 0.00 in0.0 mm 0.00 in0.0 mm 0.05 in1.3 mm
06:34 AM 52.9°F11.6°C 51.4°F10.8°C 95% Calm Calm 2.0 mph3.2 kmh 30.00 in1015.9 mb 0.00 in0.0 mm 0.00 in0.0 mm 0.05 in1.3 mm
06:44 AM 52.7°F11.5°C 51.3°F10.7°C 95% Calm Calm 1.0 mph1.6 kmh 30.00 in1015.9 mb 0.00 in0.0 mm 0.00 in0.0 mm 0.05 in1.3 mm
06:54 AM 52.7°F11.5°C 51.3°F10.7°C 95% Calm Calm 0.9 mph1.4 kmh 30.00 in1015.9 mb 0.00 in0.0 mm 0.00 in0.0 mm 0.05 in1.3 mm
07:04 AM 52.3°F11.3°C 50.9°F10.5°C 95% Calm Calm -- 30.01 in1016.3 mb 0.00 in0.0 mm 0.00 in0.0 mm 0.05 in1.3 mm
07:14 AM 52.3°F11.3°C 50.9°F10.5°C 95% Calm Calm -- 30.01 in1016.3 mb 0.00 in0.0 mm 0.00 in0.0 mm 0.05 in1.3 mm
07:24 AM 52.5°F11.4°C 51.1°F10.6°C 95% Calm Calm 2.0 mph3.2 kmh 30.01 in1016.3 mb 0.00 in0.0 mm 0.00 in0.0 mm 0.05 in1.3 mm
07:34 AM 52.7°F11.5°C 51.3°F10.7°C 95% 0.9 mph SE1.4 kmh SE 2.9 mph4.7 kmh 30.01 in1016.3 mb 0.00 in0.0 mm 0.00 in0.0 mm 0.05 in1.3 mm
07:44 AM 53.1°F11.7°C 51.6°F10.9°C 95% 0.9 mph SSE1.4 kmh SSE 2.9 mph4.7 kmh 30.01 in1016.3 mb 0.00 in0.0 mm 0.00 in0.0 mm 0.05 in1.3 mm
07:54 AM 53.2°F11.8°C 51.8°F11.0°C 95% 0.9 mph SE1.4 kmh SE 4.0 mph6.4 kmh 30.01 in1016.3 mb 0.00 in0.0 mm 0.00 in0.0 mm 0.05 in1.3 mm
08:04 AM 53.8°F12.1°C 52.2°F11.2°C 94% 2.0 mph S3.2 kmh S 4.0 mph6.4 kmh 30.01 in1016.3 mb 0.00 in0.0 mm 0.00 in0.0 mm 0.05 in1.3 mm
08:14 AM 54.0°F12.2°C 52.3°F11.3°C 94% 0.9 mph SE1.4 kmh SE 4.0 mph6.4 kmh 30.02 in1016.6 mb 0.00 in0.0 mm 0.00 in0.0 mm 0.05 in1.3 mm
08:24 AM 54.1°F12.3°C 52.5°F11.4°C 94% 2.0 mph SE3.2 kmh SE 4.9 mph7.9 kmh 30.02 in1016.6 mb 0.00 in0.0 mm 0.00 in0.0 mm 0.05 in1.3 mm
08:34 AM 54.3°F12.4°C 52.3°F11.3°C 93% 0.9 mph SE1.4 kmh SE 3.0 mph4.8 kmh 30.03 in1016.9 mb 0.00 in0.0 mm 0.00 in0.0 mm 0.05 in1.3 mm
08:44 AM 54.3°F12.4°C 52.3°F11.3°C 93% 2.0 mph S3.2 kmh S 4.9 mph7.9 kmh 30.03 in1016.9 mb 0.00 in0.0 mm 0.00 in0.0 mm 0.05 in1.3 mm
08:54 AM 54.3°F12.4°C 52.3°F11.3°C 93% 0.9 mph W1.4 kmh W 2.9 mph4.7 kmh 30.03 in1016.9 mb 0.01 in0.3 mm 0.06 in1.5 mm 0.06 in1.5 mm
09:04 AM 54.1°F12.3°C 52.5°F11.4°C 94% 2.0 mph WNW3.2 kmh WNW 4.0 mph6.4 kmh 30.03 in1016.9 mb 0.02 in0.5 mm 0.01 in0.3 mm 0.07 in1.8 mm
09:14 AM 54.1°F12.3°C 52.5°F11.4°C 94% Calm Calm 2.0 mph3.2 kmh 30.03 in1016.9 mb 0.02 in0.5 mm 0.00 in0.0 mm 0.07 in1.8 mm
09:24 AM 54.3°F12.4°C 52.7°F11.5°C 94% 0.9 mph NW1.4 kmh NW 4.0 mph6.4 kmh 30.03 in1016.9 mb 0.03 in0.8 mm 0.06 in1.5 mm 0.08 in2.0 mm
09:34 AM 54.1°F12.3°C 52.5°F11.4°C 94% 2.0 mph S3.2 kmh S 4.9 mph7.9 kmh 30.04 in1017.3 mb 0.08 in2.0 mm 0.30 in7.6 mm 0.13 in3.3 mm
09:44 AM 54.1°F12.3°C 52.5°F11.4°C 94% 2.9 mph SSW4.7 kmh SSW 6.0 mph9.7 kmh 30.05 in1017.6 mb 0.09 in2.3 mm 0.06 in1.5 mm 0.14 in3.6 mm
09:54 AM 54.3°F12.4°C 52.7°F11.5°C 94% 2.9 mph SSW4.7 kmh SSW 8.1 mph13.0 kmh 30.05 in1017.6 mb 0.08 in2.0 mm 0.00 in0.0 mm 0.14 in3.6 mm
10:04 AM 54.7°F12.6°C 53.1°F11.7°C 94% 2.9 mph SE4.7 kmh SE 6.9 mph11.1 kmh 30.05 in1017.6 mb 0.07 in1.8 mm 0.00 in0.0 mm 0.14 in3.6 mm
10:14 AM 55.2°F12.9°C 53.2°F11.8°C 93% 2.0 mph SW3.2 kmh SW 4.0 mph6.4 kmh 30.05 in1017.6 mb 0.07 in1.8 mm 0.00 in0.0 mm 0.14 in3.6 mm
10:24 AM 55.6°F13.1°C 53.6°F12.0°C 93% 0.9 mph SE1.4 kmh SE 4.0 mph6.4 kmh 30.05 in1017.6 mb 0.06 in1.5 mm 0.00 in0.0 mm 0.14 in3.6 mm
10:34 AM 55.9°F13.3°C 53.6°F12.0°C 92% Calm Calm 2.0 mph3.2 kmh 30.05 in1017.6 mb 0.01 in0.3 mm 0.00 in0.0 mm 0.14 in3.6 mm
10:44 AM 55.8°F13.2°C 52.9°F11.6°C 90% 2.0 mph WNW3.2 kmh WNW 5.0 mph8.0 kmh 30.06 in1017.9 mb 0.00 in0.0 mm 0.00 in0.0 mm 0.14 in3.6 mm
10:54 AM 56.1°F13.4°C 53.2°F11.8°C 90% 2.0 mph WNW3.2 kmh WNW 4.9 mph7.9 kmh 30.06 in1017.9 mb 0.00 in0.0 mm 0.00 in0.0 mm 0.14 in3.6 mm
11:04 AM 56.7°F13.7°C 52.5°F11.4°C 86% 2.9 mph WSW4.7 kmh WSW 6.0 mph9.7 kmh 30.06 in1017.9 mb 0.00 in0.0 mm 0.00 in0.0 mm 0.14 in3.6 mm
11:14 AM 57.0°F13.9°C 51.3°F10.7°C 81% 4.0 mph W6.4 kmh W 10.1 mph16.3 kmh 30.06 in1017.9 mb 0.00 in0.0 mm 0.00 in0.0 mm 0.14 in3.6 mm
11:24 AM 57.4°F14.1°C 50.2°F10.1°C 77% 6.0 mph W9.7 kmh W 8.9 mph14.3 kmh 30.06 in1017.9 mb 0.00 in0.0 mm 0.00 in0.0 mm 0.14 in3.6 mm
11:34 AM 58.6°F14.8°C 50.7°F10.4°C 75% 2.9 mph WSW4.7 kmh WSW 6.0 mph9.7 kmh 30.06 in1017.9 mb 0.00 in0.0 mm 0.00 in0.0 mm 0.14 in3.6 mm
11:44 AM 59.0°F15.0°C 50.4°F10.2°C 73% 2.9 mph SW4.7 kmh SW 8.1 mph13.0 kmh 30.06 in1017.9 mb 0.00 in0.0 mm 0.00 in0.0 mm 0.14 in3.6 mm
11:54 AM 59.4°F15.2°C 49.6°F9.8°C 70% 4.0 mph W6.4 kmh W 9.0 mph14.5 kmh 30.06 in1017.9 mb 0.00 in0.0 mm 0.00 in0.0 mm 0.14 in3.6 mm
12:04 PM 59.7°F15.4°C 48.4°F9.1°C 66% 4.9 mph WNW7.9 kmh WNW 12.1 mph19.5 kmh 30.06 in1017.9 mb 0.00 in0.0 mm 0.00 in0.0 mm 0.14 in3.6 mm
12:14 PM 59.7°F15.4°C 49.5°F9.7°C 69% 6.0 mph WNW9.7 kmh WNW 14.1 mph22.7 kmh 30.06 in1017.9 mb 0.00 in0.0 mm 0.00 in0.0 mm 0.14 in3.6 mm
12:24 PM 59.2°F15.1°C 48.2°F9.0°C 67% 6.9 mph W11.1 kmh W 15.0 mph24.1 kmh 30.05 in1017.6 mb 0.00 in0.0 mm 0.00 in0.0 mm 0.14 in3.6 mm
12:34 PM 59.4°F15.2°C 48.7°F9.3°C 68% 6.0 mph W9.7 kmh W 12.1 mph19.5 kmh 30.05 in1017.6 mb 0.00 in0.0 mm 0.00 in0.0 mm 0.14 in3.6 mm
12:44 PM 60.1°F15.6°C 48.2°F9.0°C 65% 6.9 mph SW11.1 kmh SW 13.0 mph20.9 kmh 30.05 in1017.6 mb 0.00 in0.0 mm 0.00 in0.0 mm 0.14 in3.6 mm
12:54 PM 59.9°F15.5°C 47.7°F8.7°C 64% 6.9 mph WNW11.1 kmh WNW 12.1 mph19.5 kmh 30.05 in1017.6 mb 0.00 in0.0 mm 0.00 in0.0 mm 0.14 in3.6 mm
01:04 PM 60.4°F15.8°C 47.8°F8.8°C 63% 4.0 mph SW6.4 kmh SW 10.1 mph16.3 kmh 30.04 in1017.3 mb 0.00 in0.0 mm 0.00 in0.0 mm 0.14 in3.6 mm
01:15 PM 60.4°F15.8°C 48.2°F9.0°C 64% 6.0 mph W9.7 kmh W 11.0 mph17.7 kmh 30.04 in1017.3 mb 0.00 in0.0 mm 0.00 in0.0 mm 0.14 in3.6 mm
01:25 PM 61.0°F16.1°C 48.7°F9.3°C 64% 6.9 mph WSW11.1 kmh WSW 15.0 mph24.1 kmh 30.03 in1016.9 mb 0.00 in0.0 mm 0.00 in0.0 mm 0.14 in3.6 mm
01:35 PM 61.2°F16.2°C 48.4°F9.1°C 63% 6.9 mph W11.1 kmh W 12.1 mph19.5 kmh 30.03 in1016.9 mb 0.00 in0.0 mm 0.00 in0.0 mm 0.14 in3.6 mm
01:45 PM 61.0°F16.1°C 49.1°F9.5°C 65% 6.9 mph WSW11.1 kmh WSW 16.1 mph25.9 kmh 30.03 in1016.9 mb 0.00 in0.0 mm 0.00 in0.0 mm 0.14 in3.6 mm
01:55 PM 61.0°F16.1°C 49.1°F9.5°C 65% 6.0 mph W9.7 kmh W 14.1 mph22.7 kmh 30.03 in1016.9 mb 0.00 in0.0 mm 0.00 in0.0 mm 0.14 in3.6 mm
02:05 PM 60.4°F15.8°C 48.6°F9.2°C 65% 8.9 mph NW14.3 kmh NW 13.0 mph20.9 kmh 30.03 in1016.9 mb 0.00 in0.0 mm 0.00 in0.0 mm 0.14 in3.6 mm
02:15 PM 59.7°F15.4°C 48.4°F9.1°C 66% 8.1 mph WNW13.0 kmh WNW 14.1 mph22.7 kmh 30.03 in1016.9 mb 0.00 in0.0 mm 0.00 in0.0 mm 0.14 in3.6 mm
02:25 PM 59.9°F15.5°C 48.6°F9.2°C 66% 6.0 mph WSW9.7 kmh WSW 12.1 mph19.5 kmh 30.03 in1016.9 mb 0.00 in0.0 mm 0.00 in0.0 mm 0.14 in3.6 mm
02:35 PM 60.1°F15.6°C 49.1°F9.5°C 67% 4.9 mph SW7.9 kmh SW 12.1 mph19.5 kmh 30.02 in1016.6 mb 0.00 in0.0 mm 0.00 in0.0 mm 0.14 in3.6 mm
02:45 PM 60.4°F15.8°C 49.1°F9.5°C 66% 4.9 mph WSW7.9 kmh WSW 11.0 mph17.7 kmh 30.03 in1016.9 mb 0.00 in0.0 mm 0.00 in0.0 mm 0.14 in3.6 mm
02:55 PM 60.4°F15.8°C 47.3°F8.5°C 62% 4.9 mph W7.9 kmh W 12.1 mph19.5 kmh 30.03 in1016.9 mb 0.00 in0.0 mm 0.00 in0.0 mm 0.14 in3.6 mm
03:05 PM 59.9°F15.5°C 48.0°F8.9°C 65% 6.0 mph WSW9.7 kmh WSW 12.1 mph19.5 kmh 30.03 in1016.9 mb 0.00 in0.0 mm 0.00 in0.0 mm 0.14 in3.6 mm
03:15 PM 60.1°F15.6°C 47.8°F8.8°C 64% 6.0 mph WNW9.7 kmh WNW 13.0 mph20.9 kmh 30.03 in1016.9 mb 0.00 in0.0 mm 0.00 in0.0 mm 0.14 in3.6 mm
03:25 PM 60.3°F15.7°C 47.7°F8.7°C 63% 4.9 mph S7.9 kmh S 10.1 mph16.3 kmh 30.03 in1016.9 mb 0.00 in0.0 mm 0.00 in0.0 mm 0.14 in3.6 mm
03:35 PM 59.9°F15.5°C 47.3°F8.5°C 63% 4.9 mph W7.9 kmh W 11.0 mph17.7 kmh 30.03 in1016.9 mb 0.00 in0.0 mm 0.00 in0.0 mm 0.14 in3.6 mm
03:45 PM 59.9°F15.5°C 47.7°F8.7°C 64% 4.9 mph W7.9 kmh W 12.1 mph19.5 kmh 30.03 in1016.9 mb 0.00 in0.0 mm 0.00 in0.0 mm 0.14 in3.6 mm
03:55 PM 59.4°F15.2°C 48.4°F9.1°C 67% 6.0 mph W9.7 kmh W 11.0 mph17.7 kmh 30.02 in1016.6 mb 0.00 in0.0 mm 0.00 in0.0 mm 0.14 in3.6 mm
04:05 PM 59.7°F15.4°C 48.4°F9.1°C 66% 4.0 mph SSW6.4 kmh SSW 10.1 mph16.3 kmh 30.03 in1016.9 mb 0.00 in0.0 mm 0.00 in0.0 mm 0.14 in3.6 mm
04:15 PM 59.7°F15.4°C 47.5°F8.6°C 64% 4.9 mph SW7.9 kmh SW 8.9 mph14.3 kmh 30.02 in1016.6 mb 0.00 in0.0 mm 0.00 in0.0 mm 0.14 in3.6 mm
04:25 PM 59.9°F15.5°C 48.9°F9.4°C 67% 4.9 mph SSW7.9 kmh SSW 11.0 mph17.7 kmh 30.02 in1016.6 mb 0.00 in0.0 mm 0.00 in0.0 mm 0.14 in3.6 mm
04:35 PM 60.3°F15.7°C 49.3°F9.6°C 67% 4.9 mph SSW7.9 kmh SSW 10.1 mph16.3 kmh 30.02 in1016.6 mb 0.00 in0.0 mm 0.00 in0.0 mm 0.14 in3.6 mm
04:45 PM 59.5°F15.3°C 49.3°F9.6°C 69% 4.9 mph WSW7.9 kmh WSW 10.1 mph16.3 kmh 30.01 in1016.3 mb 0.00 in0.0 mm 0.00 in0.0 mm 0.14 in3.6 mm
04:55 PM 59.5°F15.3°C 48.6°F9.2°C 67% 4.0 mph SSW6.4 kmh SSW 12.1 mph19.5 kmh 30.01 in1016.3 mb 0.00 in0.0 mm 0.00 in0.0 mm 0.14 in3.6 mm
05:05 PM 59.2°F15.1°C 47.8°F8.8°C 66% 4.0 mph N6.4 kmh N 11.0 mph17.7 kmh 30.01 in1016.3 mb 0.00 in0.0 mm 0.00 in0.0 mm 0.14 in3.6 mm
05:15 PM 58.6°F14.8°C 48.6°F9.2°C 69% 4.0 mph WSW6.4 kmh WSW 10.1 mph16.3 kmh 30.01 in1016.3 mb 0.00 in0.0 mm 0.00 in0.0 mm 0.14 in3.6 mm
05:25 PM 58.1°F14.5°C 48.7°F9.3°C 71% 4.9 mph SW7.9 kmh SW 10.1 mph16.3 kmh 30.01 in1016.3 mb 0.00 in0.0 mm 0.00 in0.0 mm 0.14 in3.6 mm
05:35 PM 57.9°F14.4°C 48.9°F9.4°C 72% 4.0 mph SSW6.4 kmh SSW 10.1 mph16.3 kmh 30.01 in1016.3 mb 0.00 in0.0 mm 0.00 in0.0 mm 0.14 in3.6 mm
05:45 PM 57.4°F14.1°C 49.1°F9.5°C 74% 6.0 mph WSW9.7 kmh WSW 11.0 mph17.7 kmh 30.02 in1016.6 mb 0.00 in0.0 mm 0.00 in0.0 mm 0.14 in3.6 mm
05:55 PM 56.8°F13.8°C 49.3°F9.6°C 76% 4.0 mph WNW6.4 kmh WNW 8.1 mph13.0 kmh 30.02 in1016.6 mb 0.00 in0.0 mm 0.00 in0.0 mm 0.14 in3.6 mm
06:05 PM 56.7°F13.7°C 49.5°F9.7°C 77% 4.0 mph SW6.4 kmh SW 10.1 mph16.3 kmh 30.02 in1016.6 mb 0.00 in0.0 mm 0.00 in0.0 mm 0.14 in3.6 mm
06:15 PM 56.5°F13.6°C 49.3°F9.6°C 77% 4.0 mph WSW6.4 kmh WSW 11.0 mph17.7 kmh 30.03 in1016.9 mb 0.00 in0.0 mm 0.00 in0.0 mm 0.14 in3.6 mm
06:25 PM 56.1°F13.4°C 49.3°F9.6°C 78% 6.0 mph SW9.7 kmh SW 11.0 mph17.7 kmh 30.03 in1016.9 mb 0.00 in0.0 mm 0.00 in0.0 mm 0.14 in3.6 mm
06:35 PM 55.2°F12.9°C 47.8°F8.8°C 76% 4.0 mph SW6.4 kmh SW 8.9 mph14.3 kmh 30.03 in1016.9 mb 0.00 in0.0 mm 0.00 in0.0 mm 0.14 in3.6 mm
06:45 PM 54.9°F12.7°C 48.7°F9.3°C 80% 2.9 mph SSW4.7 kmh SSW 8.9 mph14.3 kmh 30.03 in1016.9 mb 0.00 in0.0 mm 0.00 in0.0 mm 0.14 in3.6 mm
06:55 PM 53.8°F12.1°C 49.1°F9.5°C 84% 4.0 mph S6.4 kmh S 8.9 mph14.3 kmh 30.03 in1016.9 mb 0.00 in0.0 mm 0.00 in0.0 mm 0.14 in3.6 mm
07:05 PM 53.2°F11.8°C 48.9°F9.4°C 85% 4.0 mph SSE6.4 kmh SSE 6.9 mph11.1 kmh 30.03 in1016.9 mb 0.00 in0.0 mm 0.00 in0.0 mm 0.14 in3.6 mm
07:15 PM 53.2°F11.8°C 49.5°F9.7°C 87% 2.9 mph SE4.7 kmh SE 4.9 mph7.9 kmh 30.03 in1016.9 mb 0.00 in0.0 mm 0.00 in0.0 mm 0.14 in3.6 mm
07:25 PM 53.4°F11.9°C 50.0°F10.0°C 88% 2.0 mph SSE3.2 kmh SSE 4.9 mph7.9 kmh 30.03 in1016.9 mb 0.00 in0.0 mm 0.00 in0.0 mm 0.14 in3.6 mm
07:35 PM 53.2°F11.8°C 49.5°F9.7°C 87% 2.9 mph SSE4.7 kmh SSE 6.0 mph9.7 kmh 30.03 in1016.9 mb 0.00 in0.0 mm 0.00 in0.0 mm 0.14 in3.6 mm
07:45 PM 53.4°F11.9°C 49.6°F9.8°C 87% 2.0 mph S3.2 kmh S 6.0 mph9.7 kmh 30.03 in1016.9 mb 0.00 in0.0 mm 0.00 in0.0 mm 0.14 in3.6 mm
07:55 PM 53.4°F11.9°C 49.3°F9.6°C 86% 2.0 mph S3.2 kmh S 4.9 mph7.9 kmh 30.03 in1016.9 mb 0.00 in0.0 mm 0.00 in0.0 mm 0.14 in3.6 mm
08:05 PM 53.4°F11.9°C 49.1°F9.5°C 85% 2.0 mph SSE3.2 kmh SSE 6.0 mph9.7 kmh 30.03 in1016.9 mb 0.00 in0.0 mm 0.00 in0.0 mm 0.14 in3.6 mm
08:15 PM 53.4°F11.9°C 48.7°F9.3°C 84% 2.0 mph S3.2 kmh S 4.0 mph6.4 kmh 30.04 in1017.3 mb 0.00 in0.0 mm 0.00 in0.0 mm 0.14 in3.6 mm
08:25 PM 53.6°F12.0°C 48.6°F9.2°C 83% 0.9 mph S1.4 kmh S 4.9 mph7.9 kmh 30.03 in1016.9 mb 0.00 in0.0 mm 0.00 in0.0 mm 0.14 in3.6 mm
08:35 PM 53.8°F12.1°C 48.7°F9.3°C 83% 2.0 mph S3.2 kmh S 4.0 mph6.4 kmh 30.03 in1016.9 mb 0.00 in0.0 mm 0.00 in0.0 mm 0.14 in3.6 mm
08:45 PM 53.8°F12.1°C 48.7°F9.3°C 83% 2.0 mph SE3.2 kmh SE 4.9 mph7.9 kmh 30.03 in1016.9 mb 0.00 in0.0 mm 0.00 in0.0 mm 0.14 in3.6 mm
08:55 PM 53.8°F12.1°C 49.5°F9.7°C 85% 0.9 mph S1.4 kmh S 4.0 mph6.4 kmh 30.04 in1017.3 mb 0.01 in0.3 mm 0.06 in1.5 mm 0.15 in3.8 mm
09:05 PM 53.2°F11.8°C 49.5°F9.7°C 87% 0.9 mph S1.4 kmh S 2.9 mph4.7 kmh 30.04 in1017.3 mb 0.04 in1.0 mm 0.04 in1.0 mm 0.18 in4.6 mm
09:15 PM 53.1°F11.7°C 49.6°F9.8°C 88% 0.9 mph S1.4 kmh S 2.9 mph4.7 kmh 30.04 in1017.3 mb 0.04 in1.0 mm 0.00 in0.0 mm 0.18 in4.6 mm
09:25 PM 52.9°F11.6°C 49.6°F9.8°C 89% 0.9 mph WSW1.4 kmh WSW 4.0 mph6.4 kmh 30.04 in1017.3 mb 0.04 in1.0 mm 0.00 in0.0 mm 0.18 in4.6 mm
09:35 PM 52.9°F11.6°C 50.0°F10.0°C 90% 0.9 mph SSW1.4 kmh SSW 4.9 mph7.9 kmh 30.05 in1017.6 mb 0.04 in1.0 mm 0.00 in0.0 mm 0.18 in4.6 mm
09:45 PM 52.9°F11.6°C 50.0°F10.0°C 90% Calm Calm 0.9 mph1.4 kmh 30.05 in1017.6 mb 0.04 in1.0 mm 0.00 in0.0 mm 0.18 in4.6 mm
09:55 PM 52.5°F11.4°C 50.0°F10.0°C 91% Calm Calm 0.9 mph1.4 kmh 30.05 in1017.6 mb 0.04 in1.0 mm 0.00 in0.0 mm 0.19 in4.8 mm
10:05 PM 52.7°F11.5°C 50.2°F10.1°C 91% Calm Calm 0.9 mph1.4 kmh 30.05 in1017.6 mb 0.02 in0.5 mm 0.00 in0.0 mm 0.20 in5.1 mm
10:15 PM 52.5°F11.4°C 50.0°F10.0°C 91% Calm Calm 0.9 mph1.4 kmh 30.05 in1017.6 mb 0.02 in0.5 mm 0.00 in0.0 mm 0.20 in5.1 mm
10:25 PM 52.5°F11.4°C 50.2°F10.1°C 92% Calm Calm 0.9 mph1.4 kmh 30.05 in1017.6 mb 0.02 in0.5 mm 0.00 in0.0 mm 0.20 in5.1 mm
10:35 PM 52.5°F11.4°C 50.2°F10.1°C 92% Calm Calm 0.9 mph1.4 kmh 30.05 in1017.6 mb 0.02 in0.5 mm 0.00 in0.0 mm 0.20 in5.1 mm
10:45 PM 52.5°F11.4°C 50.2°F10.1°C 92% Calm Calm -- 30.05 in1017.6 mb 0.02 in0.5 mm 0.00 in0.0 mm 0.20 in5.1 mm
10:55 PM 52.5°F11.4°C 50.5°F10.3°C 93% Calm Calm 2.0 mph3.2 kmh 30.06 in1017.9 mb 0.01 in0.3 mm 0.00 in0.0 mm 0.20 in5.1 mm
11:05 PM 52.3°F11.3°C 50.4°F10.2°C 93% Calm Calm 2.0 mph3.2 kmh 30.06 in1017.9 mb 0.00 in0.0 mm 0.00 in0.0 mm 0.20 in5.1 mm
11:15 PM 52.3°F11.3°C 50.4°F10.2°C 93% Calm Calm -- 30.05 in1017.6 mb 0.00 in0.0 mm 0.00 in0.0 mm 0.20 in5.1 mm
11:25 PM 52.5°F11.4°C 50.9°F10.5°C 94% Calm Calm -- 30.05 in1017.6 mb 0.00 in0.0 mm 0.00 in0.0 mm 0.20 in5.1 mm
11:35 PM 52.3°F11.3°C 50.4°F10.2°C 93% Calm Calm -- 30.05 in1017.6 mb 0.00 in0.0 mm 0.00 in0.0 mm 0.20 in5.1 mm
11:45 PM 52.2°F11.2°C 50.5°F10.3°C 94% Calm Calm 0.9 mph1.4 kmh 30.05 in1017.6 mb 0.00 in0.0 mm 0.00 in0.0 mm 0.20 in5.1 mm
11:55 PM 51.8°F11.0°C 50.2°F10.1°C 94% Calm Calm 3.0 mph4.8 kmh 30.06 in1017.9 mb 0.00 in0.0 mm 0.00 in0.0 mm 0.20 in5.1 mm